• Join FlightAware (Why Join?)
  • Login
  • US Flag 
12:37PM EDT


 

Airport Tracker/Info


-or-


 

Live Flight TrackerFlight Track Log ✈ GEC8171 ✈ 10-May-2013 ✈ KATL - EDDF / FRA

Flight Track Log - Related Links

Times and Time Zones

All times are in EDT time to prevent confusion due to time zone crossing. See the GEC8171 flight status page for this flight to view local times or setup timezone preferences in your user account.

Time Position Orientation Groundspeed Altitude Reporting Facility
EDT Latitude Longitude Course Direction KTS MPH feet Rate Location/Type
04:35AM 33.6470 -84.4480 271° West 179 206 1,900  Level FlightAware
04:35AM 33.6480 -84.4740 273° West 185 213 2,900 1,260 Climbing FlightAware
04:36AM 33.6490 -84.5070 272° West 237 273 3,100 1,860 Climbing FlightAware
04:37AM 33.6520 -84.5890 273° West 279 321 5,400 2,760 Climbing FlightAware
04:37AM 33.6640 -84.6310 289° West 300 345 6,800 3,180 Climbing FlightAware
04:37AM 33.6830 -84.6470 325° Northwest 304 350 7,800 3,180 Climbing FlightAware
04:38AM 33.6980 -84.6510 347° North 309 356 8,400 3,600 Climbing FlightAware
04:38AM 33.7290 -84.6440 11° North 319 367 9,600 3,180 Climbing FlightAware
04:39AM 33.7820 -84.6100 28° Northeast 332 382 11,600 2,280 Climbing FlightAware
04:39AM 33.8360 -84.5770 27° Northeast 369 425 12,700 1,800 Climbing FlightAware
04:40AM 33.9160 -84.5260 28° Northeast 409 471 14,200 2,100 Climbing FlightAware
04:41AM 33.9880 -84.4780 29° Northeast 444 511 15,700 2,280 Climbing FlightAware
04:41AM 34.0690 -84.4240 29° Northeast 456 525 17,500 2,280 Climbing FlightAware
04:42AM 34.1470 -84.3730 28° Northeast 481 554 19,000 2,160 Climbing FlightAware
04:43AM 34.2270 -84.3200 29° Northeast 495 570 20,400 2,520 Climbing FlightAware
04:43AM 34.3220 -84.2740 22° Northeast 480 552 22,600 3,000 Climbing FlightAware
04:44AM 34.3397 -84.2694 12° North 486 559 23,000 2,220 Climbing FlightAware ADS-B
04:44AM 34.4088 -84.2533 11° North 494 568 24,000 1,740 Climbing FlightAware ADS-B
04:45AM 34.4769 -84.2368 11° North 504 580 24,800 1,800 Climbing FlightAware ADS-B
04:45AM 34.5519 -84.2191 11° North 507 583 25,900 1,800 Climbing FlightAware ADS-B
04:46AM 34.6280 -84.2013 11° North 512 589 26,800 2,160 Climbing FlightAware ADS-B
04:46AM 34.6982 -84.1849 11° North 504 580 28,200 2,700 Climbing FlightAware ADS-B
04:47AM 34.7674 -84.1686 11° North 493 567 29,600 2,400 Climbing FlightAware ADS-B
04:47AM 34.8351 -84.1525 11° North 490 564 30,700 1,800 Climbing FlightAware ADS-B
04:48AM 34.9044 -84.1361 11° North 491 565 31,500 1,260 Climbing FlightAware ADS-B
04:48AM 35.0057 -84.1118 11° North 491 565 32,300 900 Climbing FlightAware ADS-B
04:49AM 35.0728 -84.0958 11° North 484 557 32,700 600 Climbing FlightAware ADS-B
04:50AM 35.1410 -84.0800 11° North 471 542 33,000 240 Climbing FlightAware
04:50AM 35.2142 -84.0623 11° North 485 558 33,000  Level FlightAware ADS-B
04:51AM 35.2828 -84.0454 11° North 487 560 33,000  Level FlightAware ADS-B
04:51AM 35.3532 -84.0285 11° North 489 563 33,000  Level FlightAware ADS-B
04:52AM 35.4200 -84.0119 11° North 487 560 33,000  Level FlightAware ADS-B
04:52AM 35.4868 -83.9957 11° North 487 560 33,000  Level FlightAware ADS-B
04:53AM 35.5776 -83.9738 11° North 487 560 33,000  Level FlightAware ADS-B
04:53AM 35.6460 -83.9572 11° North 485 558 33,000  Level FlightAware ADS-B
04:54AM 35.7273 -83.9378 11° North 483 556 33,000  Level FlightAware ADS-B
04:54AM 35.7960 -83.9209 11° North 481 554 33,000  Level FlightAware ADS-B
04:55AM 35.8640 -83.9043 11° North 481 554 33,000  Level FlightAware ADS-B
04:55AM 35.8938 -83.8950 14° North 482 555 33,000  Level FlightAware ADS-B
04:55AM 35.9146 -83.8861 19° North 484 557 33,000  Level FlightAware ADS-B
04:56AM 35.9486 -83.8671 24° Northeast 488 562 33,000  Level FlightAware ADS-B
04:56AM 36.0098 -83.8280 27° Northeast 487 560 33,000  Level FlightAware ADS-B
04:57AM 36.0744 -83.7873 27° Northeast 487 560 33,000  Level FlightAware ADS-B
04:57AM 36.1374 -83.7476 27° Northeast 486 559 33,000  Level FlightAware ADS-B
04:58AM 36.1986 -83.7087 27° Northeast 487 560 33,000 60 Level FlightAware ADS-B
04:58AM 36.2599 -83.6700 27° Northeast 486 559 33,100  Climbing FlightAware ADS-B
04:59AM 36.3207 -83.6314 27° Northeast 486 559 33,000 -120 Descending FlightAware ADS-B
04:59AM 36.3814 -83.5927 27° Northeast 485 558 33,000  Level FlightAware ADS-B
05:00AM 36.4417 -83.5542 27° Northeast 485 558 33,000  Level FlightAware ADS-B
05:00AM 36.5036 -83.5147 27° Northeast 485 558 33,000  Level FlightAware ADS-B
05:01AM 36.5644 -83.4758 27° Northeast 486 559 33,000  Level FlightAware ADS-B
05:01AM 36.6252 -83.4368 27° Northeast 486 559 33,000  Level FlightAware ADS-B
05:02AM 36.6868 -83.3974 27° Northeast 487 560 33,000  Level FlightAware ADS-B
05:02AM 36.7473 -83.3585 27° Northeast 488 562 33,000  Level FlightAware ADS-B
05:03AM 36.8085 -83.3190 27° Northeast 492 566 33,000  Level FlightAware ADS-B
05:03AM 36.8696 -83.2794 27° Northeast 494 568 33,000 60 Level FlightAware ADS-B
05:04AM 36.9305 -83.2398 27° Northeast 496 571 33,100 60 Climbing FlightAware ADS-B
05:04AM 36.9935 -83.1991 27° Northeast 498 573 33,100  Level FlightAware ADS-B
05:05AM 37.0552 -83.1590 27° Northeast 497 572 33,100  Level FlightAware ADS-B
05:05AM 37.1171 -83.1189 27° Northeast 495 570 33,100 -120 Level FlightAware ADS-B
05:06AM 37.1788 -83.0787 27° Northeast 494 568 33,000 -120 Descending FlightAware ADS-B
05:06AM 37.2409 -83.0382 27° Northeast 495 570 33,000  Level FlightAware ADS-B
05:07AM 37.3054 -82.9958 28° Northeast 496 571 33,000  Level FlightAware ADS-B
05:07AM 37.3702 -82.9535 27° Northeast 496 571 33,000  Level FlightAware ADS-B
05:08AM 37.4371 -82.9098 27° Northeast 497 572 33,000  Level FlightAware ADS-B
05:08AM 37.4988 -82.8686 28° Northeast 496 571 33,000  Level FlightAware ADS-B
05:09AM 37.5606 -82.8279 28° Northeast 496 571 33,000 60 Level FlightAware ADS-B
05:09AM 37.6219 -82.7874 28° Northeast 495 570 33,100 60 Climbing FlightAware ADS-B
05:10AM 37.6844 -82.7462 28° Northeast 494 568 33,100  Level FlightAware ADS-B
05:10AM 37.7468 -82.7047 28° Northeast 490 564 33,100 -120 Level FlightAware ADS-B
05:11AM 37.8075 -82.6648 27° Northeast 489 563 33,000 -120 Descending FlightAware ADS-B
05:12AM 37.8680 -82.6244 28° Northeast 481 554 33,000  Level FlightAware ADS-B
05:12AM 37.9276 -82.5845 28° Northeast 480 552 33,000  Level FlightAware ADS-B
05:13AM 37.9901 -82.5425 28° Northeast 476 548 33,000  Level FlightAware ADS-B
05:13AM 38.0492 -82.5032 28° Northeast 474 545 33,000  Level FlightAware ADS-B
05:14AM 38.1091 -82.4631 28° Northeast 475 547 33,000  Level FlightAware ADS-B
05:15AM 38.2190 -82.3890 28° Northeast 475 547 33,000  Level FlightAware
05:15AM 38.2380 -82.3765 27° Northeast 476 548 33,000  Level FlightAware ADS-B
05:15AM 38.2980 -82.3360 28° Northeast 478 550 33,000  Level FlightAware
05:15AM 38.3105 -82.3275 28° Northeast 478 550 33,000  Level FlightAware ADS-B
05:16AM 38.3701 -82.2870 28° Northeast 478 550 33,000  Level FlightAware ADS-B
05:16AM 38.4360 -82.2424 28° Northeast 477 549 33,000  Level FlightAware ADS-B
05:17AM 38.4987 -82.2000 28° Northeast 476 548 33,000  Level FlightAware ADS-B
05:18AM 38.6270 -82.1130 28° Northeast 474 545 33,000  Level FlightAware
05:19AM 38.7040 -82.0590 29° Northeast 484 557 33,000  Level FlightAware
05:19AM 38.7820 -82.0000 31° Northeast 487 560 33,000  Level FlightAware
05:20AM 38.8650 -81.9210 37° Northeast 486 559 33,000  Level FlightAware
05:21AM 38.9390 -81.8520 36° Northeast 489 563 33,000  Level FlightAware
05:22AM 39.0190 -81.7770 36° Northeast 485 558 33,000  Level FlightAware
05:22AM 39.0910 -81.7090 36° Northeast 478 550 33,000  Level FlightAware
05:23AM 39.1610 -81.6420 37° Northeast 480 552 33,000  Level FlightAware
05:24AM 39.2410 -81.5650 37° Northeast 481 554 33,000  Level FlightAware
05:24AM 39.3110 -81.4990 36° Northeast 476 548 33,000  Level FlightAware
05:25AM 39.3830 -81.4300 37° Northeast 478 550 33,000  Level FlightAware
05:26AM 39.4640 -81.3520 37° Northeast 476 548 33,000  Level FlightAware
05:26AM 39.5360 -81.2830 36° Northeast 486 559 33,000  Level FlightAware
05:27AM 39.6160 -81.2060 37° Northeast 491 565 33,000  Level FlightAware
05:28AM 39.6900 -81.1350 36° Northeast 493 567 33,000  Level FlightAware
05:28AM 39.7640 -81.0630 37° Northeast 491 565 33,000  Level FlightAware
05:29AM 39.8460 -80.9830 37° Northeast 496 571 33,000  Level FlightAware
05:30AM 39.9200 -80.9110 37° Northeast 499 574 33,000  Level FlightAware
05:31AM 40.0050 -80.8290 36° Northeast 504 580 33,000 60 Level FlightAware
05:31AM 40.0850 -80.7670 31° Northeast 496 571 33,100  Climbing FlightAware
05:32AM 40.1720 -80.7020 30° Northeast 495 570 33,000 -120 Descending FlightAware
05:33AM 40.2510 -80.6430 30° Northeast 495 570 33,000  Level FlightAware
05:33AM 40.3320 -80.5830 29° Northeast 496 571 33,000  Level FlightAware
05:34AM 40.4200 -80.5170 30° Northeast 499 574 33,000  Level FlightAware
05:35AM 40.4720 -80.4780 30° Northeast 502 578 33,000 60 Level FlightAware
05:35AM 40.5610 -80.4100 30° Northeast 504 580 33,100 60 Climbing FlightAware
05:36AM 40.6440 -80.3480 30° Northeast 502 578 33,100 -120 Level FlightAware
05:37AM 40.7220 -80.2900 29° Northeast 503 579 33,000 -120 Descending FlightAware
05:37AM 40.8150 -80.2190 30° Northeast 505 581 33,000  Level FlightAware
05:38AM 40.8970 -80.1560 30° Northeast 508 585 33,000  Level FlightAware
05:39AM 40.9760 -80.0890 33° Northeast 513 590 33,000  Level FlightAware
05:39AM 41.0570 -79.9940 41° Northeast 514 592 33,000  Level FlightAware
05:40AM 41.1120 -79.9290 42° Northeast 514 592 33,000 60 Level FlightAware
05:41AM 41.2060 -79.8160 42° Northeast 515 593 33,100 60 Climbing FlightAware
05:41AM 41.2670 -79.7430 42° Northeast 515 593 33,100  Level FlightAware
05:42AM 41.3550 -79.6370 42° Northeast 513 590 33,100 -120 Level FlightAware
05:43AM 41.4280 -79.5500 42° Northeast 511 588 33,000 -120 Descending FlightAware
05:44AM 41.4940 -79.4700 42° Northeast 511 588 33,000  Level FlightAware
05:44AM 41.5760 -79.3700 42° Northeast 510 587 33,000  Level FlightAware
05:45AM 41.6560 -79.2730 42° Northeast 509 586 33,000  Level FlightAware
05:46AM 41.7230 -79.1910 42° Northeast 33,000  Level FlightAware
05:47AM 41.8180 -79.0750 42° Northeast 508 585 33,000  Level FlightAware
05:47AM 41.8860 -78.9910 43° Northeast 511 588 33,000 60 Level FlightAware
05:48AM 41.9670 -78.8920 42° Northeast 511 588 33,100 60 Climbing FlightAware
05:49AM 42.0330 -78.8100 43° Northeast 509 586 33,100  Level FlightAware
05:49AM 42.0950 -78.7330 43° Northeast 508 585 33,100  Level FlightAware
05:50AM 42.1640 -78.6470 43° Northeast 506 582 33,100 -120 Level FlightAware
05:51AM 42.2420 -78.5500 43° Northeast 503 579 33,000 -120 Descending FlightAware
05:51AM 42.3110 -78.4630 43° Northeast 500 575 33,000  Level FlightAware
05:52AM 42.3780 -78.3800 42° Northeast 500 575 33,000  Level FlightAware
05:53AM 42.4520 -78.2860 43° Northeast 499 574 33,000  Level FlightAware
05:54AM 42.5200 -78.2000 43° Northeast 501 577 33,000  Level FlightAware
05:54AM 42.6000 -78.0990 43° Northeast 502 578 33,000  Level FlightAware
05:55AM 42.6650 -78.0160 43° Northeast 502 578 33,000 60 Level FlightAware
05:56AM 42.7410 -77.9190 43° Northeast 502 578 33,100 60 Climbing FlightAware
05:56AM 42.8080 -77.8340 43° Northeast 503 579 33,100  Level FlightAware
05:57AM 42.8760 -77.7460 43° Northeast 502 578 33,100 -120 Level FlightAware
05:58AM 42.9460 -77.6560 43° Northeast 498 573 33,000 -120 Descending FlightAware
05:58AM 43.0150 -77.5660 44° Northeast 496 571 33,000  Level FlightAware
05:59AM 43.0850 -77.4760 43° Northeast 495 570 33,000  Level FlightAware
06:00AM 43.1540 -77.3850 44° Northeast 495 570 33,000  Level FlightAware
06:01AM 43.2350 -77.2800 43° Northeast 495 570 33,000  Level FlightAware
06:01AM 43.3040 -77.1920 43° Northeast 495 570 33,000  Level FlightAware
06:02AM 43.3610 -77.1190 43° Northeast 495 570 33,000  Level FlightAware
06:03AM 43.4170 -77.0460 43° Northeast 495 570 33,000  Level FlightAware
06:04AM 43.4890 -76.9550 43° Northeast 495 570 33,000  Level FlightAware
06:04AM 43.5460 -76.8810 43° Northeast 495 570 33,000  Level FlightAware
06:05AM 43.6650 -76.7120 46° Northeast 33,000  Level FlightAware
06:06AM 43.7250 -76.6310 44° Northeast 496 571 33,000  Level FlightAware
06:06AM 43.7990 -76.5310 44° Northeast 493 567 33,000  Level FlightAware
06:07AM 43.8730 -76.4320 44° Northeast 492 566 33,000  Level FlightAware
06:08AM 43.9410 -76.3400 44° Northeast 491 565 33,000  Level FlightAware
06:09AM 44.0140 -76.2420 44° Northeast 485 558 33,000  Level FlightAware
06:09AM 44.0790 -76.1520 45° Northeast 483 556 33,000  Level FlightAware
06:10AM 44.1420 -76.0670 44° Northeast 483 556 33,000  Level FlightAware
06:11AM 44.2150 -75.9670 44° Northeast 486 559 33,000  Level FlightAware
06:11AM 44.2830 -75.8800 42° Northeast 481 554 33,000  Level FlightAware
06:12AM 44.3480 -75.7940 43° Northeast 488 562 33,000 60 Level FlightAware
06:13AM 44.4210 -75.7000 43° Northeast 487 560 33,100  Climbing FlightAware
06:13AM 44.4880 -75.6110 43° Northeast 487 560 33,000 -120 Descending FlightAware
06:14AM 44.5540 -75.5250 43° Northeast 488 562 33,000  Level FlightAware
06:15AM 44.6280 -75.4270 43° Northeast 489 563 33,000 60 Level FlightAware
06:16AM 44.6990 -75.3320 44° Northeast 488 562 33,100 60 Climbing FlightAware
06:16AM 44.7740 -75.2340 43° Northeast 486 559 33,100 -120 Level FlightAware
06:17AM 44.8320 -75.1570 43° Northeast 477 549 33,000 -120 Descending FlightAware
06:18AM 44.9030 -75.0620 43° Northeast 475 547 33,000  Level FlightAware
06:18AM 44.9760 -74.9640 44° Northeast 474 545 33,000  Level FlightAware
06:19AM 45.0400 -74.8770 44° Northeast 475 547 33,000  Level FlightAware
06:20AM 45.1050 -74.7890 44° Northeast 476 548 33,000  Level FlightAware
06:20AM 45.1700 -74.7010 44° Northeast 479 551 33,000  Level FlightAware
06:21AM 45.2420 -74.6030 44° Northeast 488 562 33,000 60 Level FlightAware
06:22AM 45.3120 -74.5070 44° Northeast 490 564 33,100 60 Climbing FlightAware
06:23AM 45.3830 -74.4100 44° Northeast 490 564 33,100  Level FlightAware
06:23AM 45.4500 -74.3190 44° Northeast 490 564 33,100 -120 Level FlightAware
06:24AM 45.5200 -74.2200 45° Northeast 492 566 33,000 -120 Descending FlightAware
06:25AM 45.5860 -74.1300 44° Northeast 491 565 33,000  Level FlightAware
06:25AM 45.6520 -74.0380 44° Northeast 491 565 33,000  Level FlightAware
06:26AM 45.7260 -73.9340 44° Northeast 490 564 33,000  Level FlightAware
06:27AM 45.7870 -73.8490 44° Northeast 490 564 33,000  Level FlightAware
06:27AM 45.8610 -73.7450 44° Northeast 491 565 33,000 180 Level FlightAware
06:28AM 45.9260 -73.6530 45° Northeast 488 562 33,300 780 Climbing FlightAware
06:29AM 45.9900 -73.5630 44° Northeast 485 558 34,100 1,080 Climbing FlightAware
06:30AM 46.0630 -73.4590 45° Northeast 482 555 34,900 600 Climbing FlightAware
06:30AM 46.1260 -73.3690 45° Northeast 481 554 35,000 60 Climbing FlightAware
06:31AM 46.1900 -73.2780 45° Northeast 482 555 35,000  Level FlightAware
06:32AM 46.2600 -73.1770 45° Northeast 482 555 35,000  Level FlightAware
06:32AM 46.3210 -73.0880 45° Northeast 481 554 35,000  Level FlightAware
06:33AM 46.3940 -72.9840 44° Northeast 480 552 35,000  Level FlightAware
06:34AM 46.4570 -72.8920 45° Northeast 481 554 35,000  Level FlightAware
06:34AM 46.5210 -72.7990 45° Northeast 480 552 35,000  Level FlightAware
06:35AM 46.5880 -72.7010 45° Northeast 479 551 35,000  Level FlightAware
06:36AM 46.6510 -72.6080 45° Northeast 480 552 35,000  Level FlightAware
06:37AM 46.7230 -72.5020 45° Northeast 484 557 35,000  Level FlightAware
06:37AM 46.7850 -72.4100 45° Northeast 485 558 35,000  Level FlightAware
06:38AM 46.8500 -72.3140 45° Northeast 487 560 35,000 60 Level FlightAware
06:39AM 46.9190 -72.2100 46° Northeast 488 562 35,100 60 Climbing FlightAware
06:39AM 46.9790 -72.1200 46° Northeast 490 564 35,100  Level FlightAware
06:40AM 47.0440 -72.0240 45° Northeast 490 564 35,100 -120 Level FlightAware
06:41AM 47.1120 -71.9220 46° Northeast 490 564 35,000 -120 Descending FlightAware
06:41AM 47.1740 -71.8270 46° Northeast 489 563 35,000  Level FlightAware
06:42AM 47.2450 -71.7190 46° Northeast 488 562 35,000  Level FlightAware
06:43AM 47.3080 -71.6240 46° Northeast 488 562 35,000  Level FlightAware
06:44AM 47.3770 -71.5170 46° Northeast 486 559 35,000  Level FlightAware
06:44AM 47.4400 -71.4210 46° Northeast 485 558 35,000  Level FlightAware
06:45AM 47.5020 -71.3260 46° Northeast 485 558 35,000  Level FlightAware
06:46AM 47.5630 -71.2310 46° Northeast 485 558 35,000  Level FlightAware
06:46AM 47.6330 -71.1220 46° Northeast 485 558 35,000 60 Level FlightAware
06:47AM 47.6950 -71.0260 46° Northeast 484 557 35,100 60 Climbing FlightAware
06:48AM 47.7630 -70.9180 47° Northeast 484 557 35,100 -120 Level FlightAware
06:48AM 47.8250 -70.8220 46° Northeast 485 558 35,000 -120 Descending FlightAware
06:49AM 47.8850 -70.7270 47° Northeast 485 558 35,000  Level FlightAware
06:50AM 47.9550 -70.6170 46° Northeast 486 559 35,000  Level FlightAware
06:50AM 48.0160 -70.5190 47° Northeast 486 559 35,000  Level FlightAware
06:51AM 48.0850 -70.4090 47° Northeast 486 559 35,000  Level FlightAware
06:52AM 48.1460 -70.3110 47° Northeast 488 562 35,000  Level FlightAware
06:53AM 48.2150 -70.2000 47° Northeast 492 566 35,000 60 Level FlightAware
06:53AM 48.2770 -70.1000 47° Northeast 495 570 35,100 60 Climbing FlightAware
06:54AM 48.3390 -70.0000 47° Northeast 497 572 35,100  Level FlightAware
06:55AM 48.4080 -69.8870 47° Northeast 496 571 35,100  Level FlightAware
06:55AM 48.4620 -69.8000 47° Northeast 496 571 35,100  Level FlightAware
06:56AM 48.5150 -69.7140 47° Northeast 496 571 35,100  Level FlightAware
06:57AM 48.5680 -69.6280 47° Northeast 496 571 35,100  Level FlightAware
06:57AM 48.6210 -69.5420 47° Northeast 496 571 35,100  Level FlightAware
06:58AM 48.6880 -69.4340 47° Northeast 496 571 35,100  Level FlightAware
06:59AM 48.7410 -69.3470 47° Northeast 496 571 35,100  Level FlightAware
07:00AM 48.7940 -69.2610 47° Northeast 496 571 35,100  Level FlightAware
07:00AM 48.8470 -69.1740 47° Northeast 496 571 35,100  Level FlightAware
07:01AM 48.9010 -69.0870 47° Northeast 496 571 35,100  Level FlightAware
07:02AM 48.9670 -68.9790 47° Northeast 496 571 35,100  Level FlightAware
07:02AM 49.0200 -68.8920 47° Northeast 496 571 35,100  Level FlightAware
07:03AM 49.0740 -68.8050 47° Northeast 496 571 35,100  Level FlightAware
07:04AM 49.1270 -68.7170 47° Northeast 496 571 35,100  Level FlightAware
07:05AM 49.1930 -68.6080 47° Northeast 496 571 35,100 -120 Level FlightAware
07:05AM 49.3833 -68.2500 47° Northeast 510 587 35,000 -60 Descending Moncton Center
07:06AM 49.4667 -68.0833 52° Northeast 510 587 35,000  Level Moncton Center
07:07AM 49.5500 -67.9000 55° Northeast 510 587 35,000  Level Moncton Center
07:08AM 49.6667 -67.7333 43° Northeast 510 587 35,000  Level Moncton Center
07:09AM 49.7500 -67.5833 49° Northeast 510 587 35,000  Level Moncton Center
07:10AM 49.8333 -67.4167 52° Northeast 510 587 35,000  Level Moncton Center
07:11AM 49.9333 -67.2333 50° Northeast 510 587 35,000  Level Moncton Center
07:12AM 50.0167 -67.0500 55° Northeast 510 587 35,000  Level Moncton Center
07:13AM 50.1000 -66.8833 52° Northeast 510 587 35,000  Level Moncton Center
07:14AM 50.1667 -66.7000 60° Northeast 490 564 35,000  Level Moncton Center
07:15AM 50.2500 -66.4833 59° Northeast 530 610 35,000  Level Moncton Center
07:16AM 50.3333 -66.2833 57° Northeast 530 610 35,100  Climbing Moncton Center
07:17AM 50.4000 -66.1000 60° Northeast 530 610 35,100  Level Moncton Center
07:18AM 50.4833 -65.9000 57° Northeast 530 610 35,100 -60 Level Moncton Center
07:19AM 50.5500 -65.7167 60° Northeast 530 610 35,000 -60 Descending Moncton Center
07:20AM 50.6167 -65.5000 64° Northeast 530 610 35,000  Level Moncton Center
07:21AM 50.7167 -65.3000 52° Northeast 520 598 35,000  Level Moncton Center
07:22AM 50.7833 -65.1167 60° Northeast 520 598 35,000  Level Moncton Center
07:23AM 50.8667 -64.9000 59° Northeast 520 598 35,000  Level Moncton Center
07:24AM 50.9333 -64.7167 60° Northeast 520 598 35,000  Level Moncton Center
07:25AM 51.0000 -64.5000 64° Northeast 530 610 35,000  Level Moncton Center
07:26AM 51.0833 -64.3167 54° Northeast 530 610 35,000  Level Moncton Center
07:27AM 51.1500 -64.1000 64° Northeast 530 610 35,000  Level Moncton Center
07:28AM 51.2167 -63.8833 64° Northeast 530 610 35,000  Level Moncton Center
07:29AM 51.3000 -63.6667 58° Northeast 530 610 35,000  Level Moncton Center
07:30AM 51.3667 -63.4833 60° Northeast 530 610 35,000  Level Moncton Center
07:31AM 51.4333 -63.2667 64° Northeast 530 610 35,000  Level Moncton Center
07:32AM 51.5167 -63.0500 58° Northeast 530 610 35,000  Level Moncton Center
07:33AM 51.5667 -62.9000 62° Northeast 530 610 35,000  Level Gander Center
07:34AM 51.6333 -62.6833 64° Northeast 530 610 35,000  Level Gander Center
07:35AM 51.7000 -62.4667 64° Northeast 530 610 35,000  Level Gander Center
07:36AM 51.7833 -62.2000 63° Northeast 530 610 35,000  Level Moncton Center
07:37AM 51.8333 -62.0333 64° Northeast 530 610 35,000  Level Gander Center
07:38AM 51.9167 -61.8000 60° Northeast 530 610 35,000  Level Moncton Center
07:39AM 51.9833 -61.6000 62° Northeast 530 610 35,000  Level Moncton Center
07:40AM 52.0667 -61.3833 58° Northeast 530 610 35,000  Level Moncton Center
07:41AM 52.1333 -61.2000 59° Northeast 530 610 35,000  Level Gander Center
07:42AM 52.2000 -60.9833 63° Northeast 530 610 35,000  Level Gander Center
07:43AM 52.2500 -60.7667 69° East 530 610 35,000  Level Gander Center
07:44AM 52.3167 -60.5500 63° Northeast 530 610 35,000  Level Gander Center
07:45AM 52.3833 -60.3500 61° Northeast 530 610 35,000  Level Gander Center
07:46AM 52.4500 -60.1000 66° East 530 610 35,000  Level Gander Center
07:47AM 52.5167 -59.9000 61° Northeast 530 610 35,000  Level Gander Center
07:48AM 52.5833 -59.6833 63° Northeast 530 610 35,000  Level Gander Center
07:49AM 52.6500 -59.4667 63° Northeast 530 610 35,000  Level Gander Center
07:50AM 52.7167 -59.2333 65° Northeast 530 610 35,000  Level Gander Center
07:51AM 52.7667 -59.0167 69° East 540 621 35,000  Level Gander Center
07:52AM 52.8333 -58.7833 65° Northeast 540 621 35,000  Level Gander Center
07:53AM 52.9000 -58.5667 63° Northeast 540 621 35,000  Level Gander Center
07:54AM 52.9833 -58.3333 59° Northeast 540 621 35,100  Climbing Gander Center
07:55AM 53.0333 -58.1167 69° East 540 621 35,000 -60 Descending Gander Center
07:56AM 53.1000 -57.9167 61° Northeast 540 621 35,000  Level Gander Center
07:57AM 53.1500 -57.6500 73° East 540 621 35,000  Level Gander Center
07:58AM 53.2167 -57.4500 61° Northeast 540 621 35,000  Level Gander Center
07:59AM 53.2833 -57.2000 66° East 530 610 35,000  Level Gander Center
08:00AM 53.3333 -57.0000 67° East 530 610 35,000  Level Gander Center
08:01AM 53.4000 -56.7667 64° Northeast 520 598 35,000  Level Gander Center
08:02AM 53.4500 -56.5333 70° East 520 598 35,000  Level Gander Center
08:03AM 53.5167 -56.3000 64° Northeast 520 598 35,000  Level Gander Center
08:04AM 53.5667 -56.1000 67° East 520 598 35,000  Level Gander Center
08:05AM 53.6333 -55.8667 64° Northeast 530 610 35,100  Climbing Gander Center
08:06AM 53.6833 -55.6333 70° East 530 610 35,000 -60 Descending Gander Center
08:07AM 53.7333 -55.4000 70° East 530 610 35,000  Level Gander Center
08:08AM 53.8000 -55.1667 64° Northeast 530 610 35,000  Level Gander Center
08:09AM 53.8500 -54.9333 70° East 530 610 35,000  Level Gander Center
08:10AM 53.9167 -54.6833 66° East 530 610 35,000  Level Gander Center
08:11AM 53.9667 -54.4500 70° East 540 621 35,000  Level Gander Center
08:12AM 54.0333 -54.2500 60° Northeast 540 621 35,100  Climbing Gander Center
08:13AM 54.0833 -54.0000 71° East 540 621 35,100 -60 Level Gander Center
08:14AM 54.1500 -53.7667 64° Northeast 540 621 35,000 -60 Descending Gander Center
08:15AM 54.2000 -53.5333 70° East 540 621 35,000  Level Gander Center
08:16AM 54.2500 -53.2833 71° East 540 621 35,000  Level Gander Center
08:17AM 54.3000 -53.0500 70° East 530 610 35,000  Level Gander Center
08:18AM 54.3833 -52.8333 56° Northeast 540 621 35,100  Climbing Gander Center
08:19AM 54.4333 -52.6000 70° East 540 621 35,100 -60 Level Gander Center
08:20AM 54.4833 -52.3500 71° East 540 621 35,000 -60 Descending Gander Center
08:21AM 54.5333 -52.1000 71° East 540 621 35,000  Level Gander Center
08:22AM 54.5833 -51.8667 70° East 540 621 35,000  Level Gander Center
08:23AM 54.6333 -51.6167 71° East 540 621 35,000  Level Gander Center
08:24AM 54.6833 -51.3667 71° East 540 621 35,000  Level Gander Center
08:25AM 54.7333 -51.1333 70° East 540 621 35,000  Level Gander Center
08:26AM 54.7833 -50.8833 71° East 540 621 35,000  Level Gander Center
08:27AM 54.8500 -50.6333 65° Northeast 540 621 35,000  Level Gander Center
08:28AM 54.8667 -50.4000 83° East 540 621 35,000  Level Gander Center
08:29AM 54.9500 -50.1667 58° Northeast 540 621 35,000  Level Gander Center
08:30AM 54.9833 -49.9167 77° East 540 621 35,000  Level Gander Center
08:32AM 55.0332 -49.5873 75° East  Level FlightAware Approximate
08:39AM 55.2689 -47.9286 75° East  Level FlightAware Approximate
08:40AM 55.3007 -47.6901 77° East  Level FlightAware Approximate
08:41AM 55.3321 -47.4512 77° East  Level FlightAware Approximate
08:42AM 55.3630 -47.2119 77° East  Level FlightAware Approximate
08:43AM 55.3915 -46.9709 78° East  Level FlightAware Approximate
08:44AM 55.4191 -46.7301 78° East  Level FlightAware Approximate
08:45AM 55.4463 -46.4889 79° East  Level FlightAware Approximate
08:46AM 55.4730 -46.2473 79° East  Level FlightAware Approximate
08:47AM 55.4992 -46.0055 79° East  Level FlightAware Approximate
08:48AM 55.5250 -45.7633 79° East  Level FlightAware Approximate
08:49AM 55.5503 -45.5209 79° East  Level FlightAware Approximate
08:50AM 55.5750 -45.2781 80° East  Level FlightAware Approximate
08:51AM 55.5993 -45.0350 80° East  Level FlightAware Approximate
08:52AM 55.6232 -44.7916 80° East  Level FlightAware Approximate
08:53AM 55.6465 -44.5479 80° East  Level FlightAware Approximate
08:54AM 55.6695 -44.3039 80° East  Level FlightAware Approximate
08:55AM 55.6924 -44.0598 80° East  Level FlightAware Approximate
08:56AM 55.7149 -43.8154 81° East  Level FlightAware Approximate
08:57AM 55.7368 -43.5708 81° East  Level FlightAware Approximate
08:58AM 55.7583 -43.3259 81° East  Level FlightAware Approximate
08:59AM 55.7793 -43.0807 81° East  Level FlightAware Approximate
09:00AM 55.7998 -42.8352 81° East  Level FlightAware Approximate
09:01AM 55.8198 -42.5895 82° East  Level FlightAware Approximate
09:02AM 55.8394 -42.3435 82° East  Level FlightAware Approximate
09:03AM 55.8584 -42.0973 82° East  Level FlightAware Approximate
09:04AM 55.8769 -41.8509 82° East  Level FlightAware Approximate
09:05AM 55.8950 -41.6042 82° East  Level FlightAware Approximate
09:06AM 55.9126 -41.3573 83° East  Level FlightAware Approximate
09:07AM 55.9296 -41.1101 83° East  Level FlightAware Approximate
09:08AM 55.9462 -40.8628 83° East  Level FlightAware Approximate
09:09AM 55.9623 -40.6152 83° East  Level FlightAware Approximate
09:10AM 55.9778 -40.3675 83° East  Level FlightAware Approximate
09:11AM 55.9929 -40.1195 84° East  Level FlightAware Approximate
09:12AM 56.0037 -39.8709 87° East  Level FlightAware Approximate
09:13AM 56.0104 -39.6216 87° East  Level FlightAware Approximate
09:14AM 56.0167 -39.3723 87° East  Level FlightAware Approximate
09:15AM 56.0224 -39.1229 88° East  Level FlightAware Approximate
09:16AM 56.0276 -38.8734 88° East  Level FlightAware Approximate
09:17AM 56.0323 -38.6238 88° East  Level FlightAware Approximate
09:18AM 56.0391 -38.3744 87° East  Level FlightAware Approximate
09:19AM 56.0462 -38.1250 87° East  Level FlightAware Approximate
09:20AM 56.0527 -37.8754 87° East  Level FlightAware Approximate
09:21AM 56.0587 -37.6258 87° East  Level FlightAware Approximate
09:22AM 56.0643 -37.3761 88° East  Level FlightAware Approximate
09:23AM 56.0693 -37.1263 88° East  Level FlightAware Approximate
09:24AM 56.0738 -36.8764 88° East  Level FlightAware Approximate
09:25AM 56.0778 -36.6266 88° East  Level FlightAware Approximate
09:26AM 56.0813 -36.3766 88° East  Level FlightAware Approximate
09:27AM 56.0843 -36.1266 89° East  Level FlightAware Approximate
09:28AM 56.0868 -35.8766 89° East  Level FlightAware Approximate
09:29AM 56.0888 -35.6266 89° East  Level FlightAware Approximate
09:30AM 56.0903 -35.3765 89° East  Level FlightAware Approximate
09:31AM 56.0913 -35.1264 89° East  Level FlightAware Approximate
09:32AM 56.0918 -34.8763 90° East  Level FlightAware Approximate
09:33AM 56.0918 -34.6262 90° East  Level FlightAware Approximate
09:34AM 56.0912 -34.3761 90° East  Level FlightAware Approximate
09:35AM 56.0902 -34.1260 90° East  Level FlightAware Approximate
09:36AM 56.0887 -33.8760 91° East  Level FlightAware Approximate
09:37AM 56.0866 -33.6259 91° East  Level FlightAware Approximate
09:38AM 56.0841 -33.3759 91° East  Level FlightAware Approximate
09:39AM 56.0810 -33.1259 91° East  Level FlightAware Approximate
09:40AM 56.0774 -32.8760 91° East  Level FlightAware Approximate
09:41AM 56.0734 -32.6261 92° East  Level FlightAware Approximate
09:42AM 56.0688 -32.3763 92° East  Level FlightAware Approximate
09:43AM 56.0637 -32.1265 92° East  Level FlightAware Approximate
09:44AM 56.0582 -31.8768 92° East  Level FlightAware Approximate
09:45AM 56.0521 -31.6272 92° East  Level FlightAware Approximate
09:46AM 56.0455 -31.3776 93° East  Level FlightAware Approximate
09:47AM 56.0384 -31.1282 93° East  Level FlightAware Approximate
09:48AM 56.0308 -30.8788 93° East  Level FlightAware Approximate
09:49AM 56.0227 -30.6296 93° East  Level FlightAware Approximate
09:50AM 56.0141 -30.3804 93° East  Level FlightAware Approximate
09:51AM 56.0050 -30.1314 94° East  Level FlightAware Approximate
09:52AM 56.0047 -29.8825 86° East  Level FlightAware Approximate
09:53AM 56.0143 -29.6335 86° East  Level FlightAware Approximate
09:54AM 56.0234 -29.3844 86° East  Level FlightAware Approximate
09:55AM 56.0320 -29.1352 86° East  Level FlightAware Approximate
09:56AM 56.0401 -28.8859 87° East  Level FlightAware Approximate
09:57AM 56.0477 -28.6365 87° East  Level FlightAware Approximate
09:58AM 56.0548 -28.3870 87° East  Level FlightAware Approximate
09:59AM 56.0614 -28.1374 87° East  Level FlightAware Approximate
10:00AM 56.0675 -27.8877 87° East  Level FlightAware Approximate
10:00AM 56.0000 -30.0000 86° East 529 609 35,000  Level ETMS Enhanced Traffic Management System
10:01AM 56.0731 -27.6379 88° East  Level FlightAware Approximate
10:02AM 56.0782 -27.3881 88° East  Level FlightAware Approximate
10:03AM 56.0827 -27.1382 88° East  Level FlightAware Approximate
10:04AM 56.0868 -26.8883 88° East  Level FlightAware Approximate
10:05AM 56.0904 -26.6383 88° East  Level FlightAware Approximate
10:06AM 56.1001 -24.4728 90° East 529 609 35,000  Level FlightAware Transoceanic
10:07AM 56.0987 -24.2092 91° East 529 609 35,000  Level FlightAware Transoceanic
10:08AM 56.0967 -23.9456 91° East 529 609 35,000  Level FlightAware Transoceanic
10:09AM 56.0942 -23.6821 91° East 529 609 35,000  Level FlightAware Transoceanic
10:10AM 56.0911 -23.4186 91° East 529 609 35,000  Level FlightAware Transoceanic
10:11AM 56.0874 -23.1551 92° East 529 609 35,000  Level FlightAware Transoceanic
10:12AM 56.0832 -22.8917 92° East 529 609 35,000  Level FlightAware Transoceanic
10:13AM 56.0785 -22.6284 92° East 529 609 35,000  Level FlightAware Transoceanic
10:14AM 56.0731 -22.3651 92° East 529 609 35,000  Level FlightAware Transoceanic
10:15AM 56.0672 -22.1019 92° East 529 609 35,000  Level FlightAware Transoceanic
10:16AM 56.0608 -21.8388 93° East 529 609 35,000  Level FlightAware Transoceanic
10:17AM 56.0538 -21.5758 93° East 529 609 35,000  Level FlightAware Transoceanic
10:18AM 56.0462 -21.3129 93° East 529 609 35,000  Level FlightAware Transoceanic
10:19AM 56.0381 -21.0500 93° East 529 609 35,000  Level FlightAware Transoceanic
10:20AM 56.0294 -20.7873 93° East 529 609 35,000  Level FlightAware Transoceanic
10:21AM 56.0202 -20.5248 94° East 529 609 35,000  Level FlightAware Transoceanic
10:22AM 56.0104 -20.2623 94° East 529 609 35,000  Level FlightAware Transoceanic
10:23AM 56.0005 -20.0134 94° East  Level FlightAware Approximate
10:24AM 55.9903 -19.7646 94° East  Level FlightAware Approximate
10:25AM 55.9837 -19.7793 97° East  Level FlightAware Approximate
10:26AM 55.9649 -19.5322 98° East  Level FlightAware Approximate
10:27AM 55.9456 -19.2854 98° East  Level FlightAware Approximate
10:28AM 55.9259 -19.0388 98° East  Level FlightAware Approximate
10:29AM 55.9056 -18.7925 98° East  Level FlightAware Approximate
10:30AM 55.8849 -18.5464 98° East  Level FlightAware Approximate
10:31AM 55.8637 -18.3006 99° East  Level FlightAware Approximate
10:32AM 55.8419 -18.0551 99° East  Level FlightAware Approximate
10:33AM 55.8197 -17.8099 99° East  Level FlightAware Approximate
10:34AM 55.7971 -17.5649 99° East  Level FlightAware Approximate
10:35AM 55.7739 -17.3202 99° East  Level FlightAware Approximate
10:36AM 55.7502 -17.0758 100° East  Level FlightAware Approximate
10:37AM 55.7261 -16.8317 100° East  Level FlightAware Approximate
10:38AM 55.7014 -16.5879 100° East  Level FlightAware Approximate
10:39AM 55.6763 -16.3445 100° East  Level FlightAware Approximate
10:40AM 55.6507 -16.1013 100° East  Level FlightAware Approximate
10:41AM 55.6246 -15.8585 101° East  Level FlightAware Approximate
10:42AM 55.5981 -15.6160 101° East  Level FlightAware Approximate
10:43AM 55.5717 -15.3736 101° East  Level FlightAware Approximate
10:44AM 55.5448 -15.1315 101° East  Level FlightAware Approximate
10:45AM 55.5173 -14.8898 101° East  Level FlightAware Approximate
10:46AM 55.4895 -14.6484 101° East  Level FlightAware Approximate
10:47AM 55.4611 -14.4074 102° East  Level FlightAware Approximate
10:48AM 55.4323 -14.1667 102° East  Level FlightAware Approximate
10:49AM 55.4030 -13.9264 102° East  Level FlightAware Approximate
10:50AM 55.3732 -13.6864 102° East  Level FlightAware Approximate
10:51AM 55.3430 -13.4468 102° East  Level FlightAware Approximate
10:52AM 55.3122 -13.2076 103° East  Level FlightAware Approximate
10:53AM 55.2811 -12.9687 103° East  Level FlightAware Approximate
10:54AM 55.2494 -12.7302 103° East  Level FlightAware Approximate
10:55AM 55.2173 -12.4921 103° East  Level FlightAware Approximate
10:56AM 55.1848 -12.2544 103° East  Level FlightAware Approximate
10:57AM 55.1517 -12.0170 104° East  Level FlightAware Approximate
10:57AM 56.0200 -12.0180 104° East 490 564 37,000  Level FlightAware
10:57AM 56.0200 -11.8930 90° East 490 564 37,000  Level FlightAware
10:58AM 56.0190 -11.6760 90° East 490 564 37,000  Level FlightAware
10:59AM 56.0180 -11.5150 91° East 488 562 37,000  Level FlightAware
10:59AM 56.0170 -11.3550 91° East 488 562 37,000  Level FlightAware
11:00AM 56.0150 -11.1730 91° East 488 562 37,000  Level FlightAware
11:01AM 56.0120 -11.0110 92° East 488 562 37,000  Level FlightAware
11:02AM 56.0000 -10.8330 97° East 490 564 37,000  Level FlightAware
11:02AM 55.9900 -10.6720 96° East 490 564 37,000  Level FlightAware
11:03AM 55.9770 -10.4890 97° East 491 565 37,000 60 Level FlightAware
11:04AM 55.9660 -10.3290 97° East 493 567 37,100 60 Climbing FlightAware
11:04AM 55.9550 -10.1690 97° East 493 567 37,100  Level FlightAware
11:05AM 55.9420 -9.9880 97° East 492 566 37,100 -120 Level FlightAware
11:06AM 55.9290 -9.8250 98° East 491 565 37,000 -120 Descending FlightAware
11:06AM 55.9180 -9.6670 97° East 491 565 37,000  Level FlightAware
11:09AM 55.8116 -9.1716 111° Southeast  Level Estimated
11:09AM 55.8410 -9.1830 111° Southeast 485 558 37,000  Level FlightAware
11:09AM 55.7774 -8.9798 111° Southeast 482 555 35,500  Descending FlightAware UK
11:10AM 55.7630 -8.9360 111° Southeast 491 565 37,000  Climbing FlightAware
11:10AM 55.7373 -8.8540 111° Southeast 484 557 35,500 -2,520 Descending FlightAware UK
11:10AM 55.7172 -8.7912 120° Southeast 486 559 35,500 4,320 Level FlightAware UK
11:10AM 55.7190 -8.7970 120° Southeast 493 567 37,100  Climbing FlightAware
11:11AM 55.6902 -8.7072 120° Southeast 486 559 35,500 -2,580 Descending FlightAware UK
11:11AM 55.6697 -8.6434 120° Southeast 484 557 35,500 3,840 Level FlightAware UK
11:11AM 55.6670 -8.6360 120° Southeast 494 568 37,100  Climbing FlightAware
11:11AM 55.6427 -8.5591 120° Southeast 488 562 35,500 -2,760 Descending FlightAware UK
11:12AM 55.6225 -8.4960 120° Southeast 486 559 35,500 4,140 Level FlightAware UK
11:12AM 55.6210 -8.4920 120° Southeast 494 568 37,100  Climbing FlightAware
11:12AM 55.5953 -8.4121 120° Southeast 486 559 35,500 -2,640 Descending FlightAware UK
11:12AM 55.5751 -8.3492 120° Southeast 484 557 35,500 4,560 Level FlightAware UK
11:12AM 55.5770 -8.3550 120° Southeast 493 567 37,100  Climbing FlightAware
11:13AM 55.5549 -8.2864 120° Southeast 486 559 35,500 -2,940 Descending FlightAware UK
11:13AM 55.5345 -8.2238 120° Southeast 486 559 35,500 3,600 Level FlightAware UK
11:13AM 55.5320 -8.2160 120° Southeast 492 566 37,000  Climbing FlightAware
11:13AM 55.5071 -8.1407 120° Southeast 486 559 35,500 -2,580 Descending FlightAware UK
11:14AM 55.4865 -8.0784 120° Southeast 486 559 35,500 3,180 Level FlightAware UK
11:14AM 55.4800 -8.0600 120° Southeast 489 563 37,000  Climbing FlightAware
11:14AM 55.4520 -7.9747 120° Southeast 486 559 35,500 -2,400 Descending FlightAware UK
11:15AM 55.4315 -7.9125 120° Southeast 486 559 35,500 4,500 Level FlightAware UK
11:15AM 55.4350 -7.9220 120° Southeast 491 565 37,000  Climbing FlightAware
11:15AM 55.4110 -7.8503 120° Southeast 486 559 35,500 -2,700 Descending FlightAware UK
11:15AM 55.3908 -7.7882 120° Southeast 484 557 35,500 3,060 Level FlightAware UK
11:15AM 55.3830 -7.7660 120° Southeast 485 558 37,000  Climbing FlightAware
11:16AM 55.3565 -7.6857 120° Southeast 484 557 35,500 -2,460 Descending FlightAware UK
11:16AM 55.3358 -7.6245 121° Southeast 482 555 35,500 4,260 Level FlightAware UK
11:16AM 55.3380 -7.6310 121° Southeast 484 557 37,000 -360 Climbing FlightAware
11:16AM 55.3152 -7.5634 121° Southeast 482 555 35,400 -2,940 Descending FlightAware UK
11:17AM 55.2947 -7.5022 120° Southeast 484 557 35,400 3,840 Level FlightAware UK
11:17AM 55.2920 -7.4930 120° Southeast 483 556 37,000  Climbing FlightAware
11:17AM 55.2673 -7.4207 120° Southeast 482 555 35,400 -2,760 Descending FlightAware UK
11:17AM 55.2465 -7.3590 121° Southeast 484 557 35,400 3,420 Level FlightAware UK
11:17AM 55.2410 -7.3420 121° Southeast 482 555 37,000  Climbing FlightAware
11:18AM 55.2123 -7.2576 121° Southeast 482 555 35,400 -2,580 Descending FlightAware UK
11:18AM 55.1916 -7.1972 121° Southeast 480 552 35,400 4,800 Level FlightAware UK
11:18AM 55.1940 -7.2050 121° Southeast 481 554 37,000  Climbing FlightAware
11:18AM 55.1709 -7.1367 121° Southeast 482 555 35,400 -2,880 Descending FlightAware UK
11:19AM 55.1502 -7.0764 121° Southeast 480 552 35,400 3,300 Level FlightAware UK
11:19AM 55.1430 -7.0550 121° Southeast 482 555 37,000  Climbing FlightAware
11:19AM 55.1157 -6.9758 121° Southeast 480 552 35,400 -2,460 Descending FlightAware UK
11:19AM 55.0949 -6.9152 121° Southeast 480 552 35,500 4,560 Climbing FlightAware UK
11:19AM 55.0960 -6.9190 121° Southeast 485 558 37,000  Climbing FlightAware
11:20AM 55.0740 -6.8544 121° Southeast 486 559 35,500 -2,760 Descending FlightAware UK
11:20AM 55.0529 -6.7931 121° Southeast 490 564 35,500 3,840 Level FlightAware UK
11:20AM 55.0490 -6.7820 121° Southeast 492 566 37,100  Climbing FlightAware
11:20AM 55.0246 -6.7116 121° Southeast 488 562 35,500 -2,760 Descending FlightAware UK
11:21AM 55.0032 -6.6508 122° Southeast 486 559 35,500 3,420 Level FlightAware UK
11:21AM 54.9960 -6.6300 122° Southeast 492 566 37,100  Climbing FlightAware
11:21AM 54.9678 -6.5496 122° Southeast 486 559 35,500 -2,580 Descending FlightAware UK
11:22AM 54.9466 -6.4890 121° Southeast 484 557 35,500 4,500 Level FlightAware UK
11:22AM 54.9490 -6.4940 121° Southeast 491 565 37,000  Climbing FlightAware
11:22AM 54.9253 -6.4285 121° Southeast 484 557 35,500 -2,880 Descending FlightAware UK
11:22AM 54.9041 -6.3679 121° Southeast 486 559 35,400 3,060 Descending FlightAware UK
11:22AM 54.8960 -6.3430 121° Southeast 491 565 37,000 180 Climbing FlightAware
11:23AM 54.8686 -6.2671 121° Southeast 488 562 35,500 -2,460 Descending FlightAware UK
11:23AM 54.8471 -6.2070 122° Southeast 484 557 35,500 4,260 Level FlightAware UK
11:23AM 54.8490 -6.2110 122° Southeast 491 565 37,000  Climbing FlightAware
11:23AM 54.8256 -6.1473 122° Southeast 486 559 35,500 -2,760 Descending FlightAware UK
11:24AM 54.8042 -6.0867 121° Southeast 486 559 35,500 3,600 Level FlightAware UK
11:24AM 54.8000 -6.0740 121° Southeast 491 565 37,000  Climbing FlightAware
11:24AM 54.7758 -6.0065 121° Southeast 488 562 35,500 -2,580 Descending FlightAware UK
11:24AM 54.7544 -5.9469 122° Southeast 486 559 35,500 3,180 Level FlightAware UK
11:24AM 54.7470 -5.9270 122° Southeast 489 563 37,000  Climbing FlightAware
11:25AM 54.7182 -5.8473 122° Southeast 484 557 35,500 -2,400 Descending FlightAware UK
11:25AM 54.6970 -5.7876 122° Southeast 480 552 35,500 4,500 Level FlightAware UK
11:25AM 54.7000 -5.7960 122° Southeast 488 562 37,000 -360 Climbing FlightAware
11:25AM 54.6756 -5.7281 122° Southeast 482 555 35,400 -2,880 Descending FlightAware UK
11:26AM 54.6541 -5.6688 122° Southeast 480 552 35,400 3,960 Level FlightAware UK
11:26AM 54.6530 -5.6650 122° Southeast 489 563 37,000  Climbing FlightAware
11:26AM 54.6252 -5.5898 122° Southeast 482 555 35,400 -2,700 Descending FlightAware UK
11:26AM 54.6037 -5.5302 122° Southeast 484 557 35,400 3,540 Level FlightAware UK
11:26AM 54.6000 -5.5200 122° Southeast 491 565 37,000 240 Climbing FlightAware
11:27AM 54.5748 -5.4508 122° Southeast 484 557 35,500 -2,760 Descending FlightAware UK
11:27AM 54.5529 -5.3914 122° Southeast 486 559 35,500 3,600 Level FlightAware UK
11:27AM 54.5500 -5.3840 122° Southeast 492 566 37,000  Climbing FlightAware
11:27AM 54.5236 -5.3120 122° Southeast 484 557 35,500 -2,580 Descending FlightAware UK
11:28AM 54.5016 -5.2528 123° Southeast 480 552 35,500 4,140 Level FlightAware UK
11:28AM 54.5030 -5.2560 123° Southeast 491 565 37,100  Climbing FlightAware
11:28AM 54.4725 -5.1737 123° Southeast 480 552 35,500 -2,640 Descending FlightAware UK
11:28AM 54.4506 -5.1144 122° Southeast 482 555 35,500 3,420 Level FlightAware UK
11:29AM 54.4450 -5.0980 122° Southeast 494 568 37,000  Climbing FlightAware
11:29AM 54.4213 -5.0353 122° Southeast 484 557 35,500 -2,700 Descending FlightAware UK
11:29AM 54.3990 -4.9762 123° Southeast 484 557 35,500 3,060 Level FlightAware UK
11:29AM 54.3910 -4.9550 123° Southeast 495 570 37,000  Climbing FlightAware
11:30AM 54.3619 -4.8772 123° Southeast 486 559 35,500 -2,460 Descending FlightAware UK
11:30AM 54.3394 -4.8171 123° Southeast 488 562 35,500 4,560 Level FlightAware UK
11:30AM 54.3400 -4.8180 123° Southeast 496 571 37,100  Climbing FlightAware
11:30AM 54.3173 -4.7574 123° Southeast 488 562 35,500 -2,940 Descending FlightAware UK
11:31AM 54.2952 -4.6977 122° Southeast 486 559 35,500 3,840 Level FlightAware UK
11:31AM 54.2910 -4.6860 122° Southeast 495 570 37,100  Climbing FlightAware
11:31AM 54.2651 -4.6191 122° Southeast 484 557 35,500 -2,760 Descending FlightAware UK
11:31AM 54.2426 -4.5602 123° Southeast 486 559 35,500 3,180 Level FlightAware UK
11:31AM 54.2340 -4.5360 123° Southeast 495 570 37,000  Climbing FlightAware
11:32AM 54.2055 -4.4620 123° Southeast 482 555 35,500 -2,400 Descending FlightAware UK
11:32AM 54.1833 -4.4030 123° Southeast 482 555 35,500 4,500 Level FlightAware UK
11:32AM 54.1860 -4.4100 123° Southeast 494 568 37,000  Climbing FlightAware
11:32AM 54.1610 -4.3443 123° Southeast 482 555 35,500  Descending FlightAware UK
11:33AM 54.1290 -4.2610 123° Southeast 493 567 37,000  Climbing FlightAware
11:33AM 54.1013 -4.1887 123° Southeast 484 557 35,500 -2,460 Descending FlightAware UK
11:33AM 54.0789 -4.1307 123° Southeast 480 552 35,500 4,260 Level FlightAware UK
11:33AM 54.0790 -4.1310 123° Southeast 490 564 37,000  Climbing FlightAware
11:34AM 54.0564 -4.0730 123° Southeast 478 550 35,500 -2,940 Descending FlightAware UK
11:34AM 54.0340 -4.0153 123° Southeast 480 552 35,400 3,000 Descending FlightAware UK
11:34AM 54.0220 -3.9830 123° Southeast 490 564 37,000  Climbing FlightAware
11:35AM 53.9964 -3.9185 123° Southeast 482 555 35,400 -2,640 Descending FlightAware UK
11:35AM 53.9738 -3.8609 124° Southeast 480 552 35,400 4,560 Level FlightAware UK
11:35AM 53.9730 -3.8570 124° Southeast 492 566 37,000  Climbing FlightAware
11:35AM 53.9560 -3.7980 124° Southeast 476 548 35,400  Descending FlightAware UK
11:36AM 53.9390 -3.7100 124° Southeast 503 579 37,000  Climbing FlightAware
11:36AM 53.9272 -3.6405 124° Southeast 480 552 35,400  Descending FlightAware UK
11:36AM 53.9100 -3.5460 124° Southeast 502 578 37,000 60 Climbing FlightAware
11:37AM 53.8819 -3.3927 124° Southeast 486 559 35,500  Descending FlightAware UK
11:37AM 53.8820 -3.3960 124° Southeast 503 579 37,000 240 Climbing FlightAware
11:37AM 53.8647 -3.3024 124° Southeast 486 559 35,600 -2,280 Descending FlightAware UK
11:38AM 53.8521 -3.2350 108° East 490 564 35,500 3,900 Descending FlightAware UK
11:38AM 53.8500 -3.2240 108° East 502 578 37,100  Climbing FlightAware
11:38AM 53.8318 -3.1225 108° East 486 559 35,500  Descending FlightAware UK
11:38AM 53.8230 -3.0740 108° East 500 575 37,100  Climbing FlightAware
11:39AM 53.8107 -3.0103 108° East 486 559 35,500 -2,940 Descending FlightAware UK
11:39AM 53.7983 -2.9433 107° East 484 557 35,500 3,840 Level FlightAware UK
11:39AM 53.7950 -2.9240 107° East 497 572 37,100 2,400 Climbing FlightAware
11:40AM 53.7740 -2.8140 108° East 495 570 37,000 -1,680 Descending FlightAware
11:40AM 53.7526 -2.6999 108° East 482 555 35,500  Descending FlightAware UK
11:40AM 53.7470 -2.6680 108° East 492 566 37,000 -180 Climbing FlightAware
11:41AM 53.7279 -2.5686 108° East 476 548 35,400  Descending FlightAware UK
11:41AM 53.7160 -2.5090 108° East 490 564 37,000 1,560 Climbing FlightAware
11:42AM 53.6880 -2.3620 108° East 494 568 37,000 -1,680 Level FlightAware
11:42AM 53.6726 -2.2850 108° East 478 550 35,400  Descending FlightAware UK
11:42AM 53.6550 -2.1960 108° East 503 579 37,000 60 Climbing FlightAware
11:43AM 53.6288 -2.0608 108° East 484 557 35,500 120 Descending FlightAware UK
11:43AM 53.6209 -2.0217 108° East 509 586 37,100  Climbing FlightAware ADS-B
11:43AM 53.6063 -1.9476 108° East 486 559 35,500  Descending FlightAware UK
11:44AM 53.5937 -1.8833 108° East 511 588 37,100 1,980 Climbing FlightAware ADS-B
11:44AM 53.5710 -1.7674 108° East 511 588 37,100 -1,980 Level FlightAware ADS-B
11:45AM 53.5572 -1.6985 108° East 488 562 35,500  Descending FlightAware UK
11:45AM 53.5443 -1.6363 108° East 510 587 37,100  Climbing FlightAware ADS-B
11:45AM 53.5160 -1.4963 108° East 486 559 35,500 -1,800 Descending FlightAware UK
11:46AM 53.5025 -1.4288 109° East 482 555 35,500 3,600 Level FlightAware UK
11:46AM 53.4976 -1.4045 109° East 512 589 37,000  Climbing FlightAware ADS-B
11:46AM 53.4794 -1.3156 109° East 488 562 35,500  Descending FlightAware UK
11:46AM 53.4736 -1.2867 109° East 513 590 37,000  Climbing FlightAware ADS-B
11:47AM 53.4564 -1.2023 109° East 486 559 35,500  Descending FlightAware UK
11:47AM 53.4479 -1.1609 109° East 512 589 37,000 2,100 Climbing FlightAware ADS-B
11:47AM 53.4250 -1.0499 109° East 509 586 37,000 -1,920 Level FlightAware ADS-B
11:48AM 53.4103 -0.9783 109° East 488 562 35,500  Descending FlightAware UK
11:48AM 53.4020 -0.9400 109° East 505 581 37,000 2,280 Climbing FlightAware
11:48AM 53.3809 -0.8385 109° East 503 579 37,000 -2,040 Level FlightAware ADS-B
11:49AM 53.3642 -0.7582 109° East 484 557 35,400  Descending FlightAware UK
11:49AM 53.3566 -0.7224 109° East 500 575 37,000 2,040 Climbing FlightAware ADS-B
11:50AM 53.3281 -0.5867 109° East 499 574 37,000 -1,740 Level FlightAware ADS-B
11:50AM 53.3138 -0.5186 109° East 478 550 35,400  Descending FlightAware UK
11:50AM 53.3080 -0.4910 109° East 495 570 37,000 4,560 Climbing FlightAware
11:50AM 53.2982 -0.4457 110° East 495 570 37,000 -3,840 Level FlightAware ADS-B
11:50AM 53.2861 -0.3889 110° East 476 548 35,400  Descending FlightAware UK
11:51AM 53.2739 -0.3324 110° East 496 571 37,000 2,040 Climbing FlightAware ADS-B
11:51AM 53.2501 -0.2208 110° East 497 572 37,000 -1,800 Level FlightAware ADS-B
11:52AM 53.2350 -0.1514 110° East 480 552 35,500  Descending FlightAware UK
11:52AM 53.2260 -0.1117 110° East 497 572 37,000  Climbing FlightAware ADS-B
11:52AM 53.2111 -0.0437 110° East 478 550 35,500  Descending FlightAware UK
11:52AM 53.2022 -0.0030 110° East 499 574 37,000  Climbing FlightAware ADS-B
11:53AM 53.1875 0.0644 110° East 480 552 35,500  Descending FlightAware UK
11:53AM 53.1779 0.1090 110° East 500 575 37,000 2,160 Climbing FlightAware ADS-B
11:53AM 53.1536 0.2201 110° East 499 574 37,100 -1,740 Climbing FlightAware ADS-B
11:54AM 53.1349 0.3040 110° East 482 555 35,500  Descending FlightAware UK
11:54AM 53.1296 0.3279 110° East 500 575 37,100  Climbing FlightAware ADS-B
11:54AM 53.1160 0.3896 110° East 482 555 35,500  Descending FlightAware UK
11:54AM 53.1054 0.4369 110° East 498 573 37,100 2,160 Climbing FlightAware ADS-B
11:55AM 53.0814 0.5448 110° East 496 571 37,100 -2,100 Level FlightAware ADS-B
11:55AM 53.0679 0.6048 110° East 480 552 35,500 -240 Descending FlightAware UK
11:55AM 53.0569 0.6526 110° East 494 568 37,000 1,980 Climbing FlightAware ADS-B
11:56AM 53.0327 0.7603 110° East 493 567 37,000 -1,740 Level FlightAware ADS-B
11:56AM 53.0152 0.8388 110° East 476 548 35,500  Descending FlightAware UK
11:56AM 53.0088 0.8671 110° East 492 566 37,000 -300 Climbing FlightAware ADS-B
11:57AM 52.9963 0.9235 110° East 470 541 35,400  Descending FlightAware UK
11:57AM 52.9850 0.9737 110° East 493 567 37,000 2,820 Climbing FlightAware ADS-B
11:57AM 52.9733 1.0464 105° East 499 574 37,000  Level FlightAware ADS-B
11:58AM 52.9600 1.1619 101° East 505 581 37,000 60 Level FlightAware ADS-B
11:58AM 52.9463 1.2763 101° East 506 582 37,100 60 Climbing FlightAware ADS-B
11:59AM 52.9320 1.3972 101° East 507 583 37,100 -1,800 Level FlightAware ADS-B
11:59AM 52.9218 1.4871 101° East 486 559 35,500  Descending FlightAware UK
11:59AM 52.9186 1.5107 101° East 504 580 37,100  Climbing FlightAware ADS-B
11:59AM 52.9108 1.5785 101° East 478 550 35,500 -240 Descending FlightAware UK
12:00PM 52.9052 1.6250 101° East 496 571 37,000 3,600 Climbing FlightAware ADS-B
12:00PM 52.8988 1.6658 105° East 492 566 37,000  Level FlightAware ADS-B
12:00PM 52.8893 1.7077 111° Southeast 488 562 37,000 -3,360 Level FlightAware ADS-B
12:00PM 52.8724 1.7694 111° Southeast 472 543 35,400  Descending FlightAware UK
12:01PM 52.8613 1.8115 111° Southeast 486 559 37,000  Climbing FlightAware ADS-B
12:01PM 52.8343 1.9125 111° Southeast 470 541 35,400  Descending FlightAware UK
12:01PM 52.8360 1.9070 111° Southeast 488 562 37,000 3,060 Climbing FlightAware
12:02PM 52.8066 2.0150 114° Southeast 493 567 37,000 -2,160 Level FlightAware ADS-B
12:02PM 52.7905 2.0755 114° Southeast 476 548 35,400  Descending FlightAware UK
12:02PM 52.7770 2.1252 114° Southeast 496 571 37,000 120 Climbing FlightAware ADS-B
12:02PM 52.7567 2.2003 114° Southeast 478 550 35,500 180 Descending FlightAware UK
12:03PM 52.7510 2.2220 114° Southeast 498 573 37,100  Climbing FlightAware
12:03PM 52.7228 2.3257 114° Southeast 482 555 35,500  Descending FlightAware UK
12:03PM 52.7100 2.3720 114° Southeast 499 574 37,100  Climbing FlightAware
12:04PM 52.6888 2.4503 114° Southeast 482 555 35,500 -2,700 Descending FlightAware UK
12:04PM 52.6719 2.5127 114° Southeast 478 550 35,500 4,320 Level FlightAware UK
12:04PM 52.6740 2.5060 114° Southeast 499 574 37,100 1,800 Climbing FlightAware
12:05PM 52.6300 2.6650 114° Southeast 499 574 37,000 -120 Descending FlightAware
12:05PM 52.5900 2.8090 115° Southeast 498 573 37,000  Level FlightAware
12:06PM 52.5590 2.9180 115° Southeast 496 571 37,000 -1,800 Level FlightAware
12:06PM 52.5397 2.9882 115° Southeast 474 545 35,500  Descending FlightAware UK
12:07PM 52.5080 3.1020 115° Southeast 494 568 37,000 1,200 Climbing FlightAware
12:08PM 52.4720 3.2270 115° Southeast 493 567 37,000 -1,260 Level FlightAware
12:08PM 52.4307 3.3739 115° Southeast 476 548 35,400  Descending FlightAware UK
12:08PM 52.4280 3.3840 115° Southeast 492 566 37,000  Climbing FlightAware
12:09PM 52.4019 3.4756 115° Southeast 472 543 35,400  Descending FlightAware UK
12:09PM 52.3900 3.5170 115° Southeast 492 566 37,000  Climbing FlightAware
12:09PM 52.3617 3.6170 115° Southeast 472 543 35,400  Descending FlightAware UK
12:10PM 52.3510 3.6550 115° Southeast 492 566 37,000 1,620 Climbing FlightAware
12:10PM 52.3060 3.8100 115° Southeast 496 571 37,000 60 Level FlightAware
12:11PM 52.2670 3.9410 116° Southeast 498 573 37,100 60 Climbing FlightAware
12:12PM 52.2300 4.0700 115° Southeast 498 573 37,100 -1,740 Level FlightAware
12:12PM 52.2081 4.1437 115° Southeast 478 550 35,500 -180 Descending FlightAware UK
12:12PM 52.1890 4.2090 115° Southeast 495 570 37,000  Climbing FlightAware
12:13PM 52.1665 4.2847 115° Southeast 476 548 35,500  Descending FlightAware UK
12:13PM 52.1430 4.3650 115° Southeast 494 568 37,000  Climbing FlightAware
12:13PM 52.1245 4.4245 115° Southeast 474 545 35,500 -2,280 Descending FlightAware UK
12:14PM 52.1008 4.5043 116° Southeast 474 545 35,500 3,060 Level FlightAware UK
12:14PM 52.1000 4.5100 116° Southeast 491 565 37,000  Climbing FlightAware
12:14PM 52.0716 4.6049 116° Southeast 476 548 35,500 -2,100 Descending FlightAware UK
12:15PM 52.0546 4.6651 115° Southeast 474 545 35,500  Level FlightAware UK
12:15PM 52.0313 4.7447 115° Southeast 476 548 35,500 1,860 Level FlightAware UK
12:15PM 52.0100 4.8100 115° Southeast 489 563 37,000  Climbing FlightAware
12:16PM 51.9820 4.9013 115° Southeast 470 541 35,500  Descending FlightAware UK
12:16PM 51.9710 4.9380 115° Southeast 489 563 37,000  Climbing FlightAware
12:16PM 51.9465 5.0195 115° Southeast 476 548 35,500 -2,340 Descending FlightAware UK
12:17PM 51.9283 5.0784 117° Southeast 478 550 35,500 1,500 Level FlightAware UK
12:17PM 51.8830 5.2240 117° Southeast 491 565 37,100  Climbing FlightAware
12:18PM 51.8631 5.2963 117° Southeast 484 557 35,500  Descending FlightAware UK
12:18PM 51.8440 5.3510 117° Southeast 491 565 37,100  Climbing FlightAware
12:18PM 51.8264 5.4141 117° Southeast 486 559 35,500 -2,400 Descending FlightAware UK
12:19PM 51.8013 5.4919 118° Southeast 482 555 35,500 3,300 Level FlightAware UK
12:19PM 51.7990 5.4980 118° Southeast 484 557 37,100  Climbing FlightAware
12:19PM 51.7766 5.5690 118° Southeast 478 550 35,500 -180 Descending FlightAware UK
12:20PM 51.7610 5.6200 118° Southeast 479 551 37,000  Climbing FlightAware
12:20PM 51.7401 5.6834 118° Southeast 474 545 35,500 -2,940 Descending FlightAware UK
12:20PM 51.7213 5.7396 118° Southeast 474 545 35,400 3,600 Descending FlightAware UK
12:20PM 51.7190 5.7540 118° Southeast 475 547 37,000 1,560 Climbing FlightAware
12:21PM 51.6750 5.8930 117° Southeast 476 548 36,800 -960 Descending FlightAware
12:22PM 51.6350 6.0180 117° Southeast 477 549 35,700 -1,740 Descending FlightAware
12:22PM 51.5950 6.1450 117° Southeast 472 543 34,500 -1,800 Descending FlightAware
12:23PM 51.5520 6.2790 117° Southeast 465 535 33,200 -1,800 Descending FlightAware
12:24PM 51.5120 6.4020 118° Southeast 450 518 32,000 -1,860 Descending FlightAware
12:24PM 51.4700 6.5350 117° Southeast 434 499 30,600 -1,800 Descending FlightAware
12:25PM 51.4400 6.6290 117° Southeast 423 487 29,600 -1,800 Descending FlightAware
12:26PM 51.4050 6.7350 118° Southeast 411 473 28,400 -1,920 Descending FlightAware
12:27PM 51.3580 6.8770 118° Southeast 407 468 26,800 -1,500 Descending FlightAware
12:27PM 51.3260 6.9750 118° Southeast 400 460 26,200 -600 Descending FlightAware
12:28PM 51.2830 7.0960 120° Southeast 396 456 26,000 -180 Descending FlightAware
12:29PM 51.2390 7.1660 135° Southeast 388 447 26,000  Level FlightAware
12:29PM 51.1710 7.2270 151° Southeast 382 440 26,000  Level FlightAware
12:30PM 51.1060 7.2810 152° Southeast 384 442 26,000 -720 Level FlightAware
12:31PM 51.0460 7.3400 148° Southeast 388 447 25,100 -1,740 Descending FlightAware
12:31PM 50.9710 7.4150 148° Southeast 382 440 23,400 -2,100 Descending FlightAware
12:32PM 50.9270 7.5040 128° Southeast 382 440 22,000 -2,100 Descending FlightAware
12:33PM 50.8880 7.5840 128° Southeast 380 437 20,800 -2,100 Descending FlightAware
12:34PM 50.8390 7.6870 127° Southeast 376 433 19,100 -2,100 Descending FlightAware
12:34PM 50.7830 7.8070 126° Southeast 365 420 17,200 -2,100 Descending FlightAware
12:35PM 50.7410 7.8930 128° Southeast 360 414 15,800 -1,860 Descending FlightAware
12:36PM 50.6970 7.9870 126° Southeast 352 405 14,600 -1,560 Descending FlightAware
12:37PM 50.6580 8.0670 128° Southeast 341 392 13,600 -1,500 Descending FlightAware
12:37PM 50.6150 8.1560 127° Southeast 341 392 12,500 -1,440 Descending FlightAware
12:38PM 50.5780 8.2330 127° Southeast 327 376 11,600 -1,200 Descending FlightAware
12:39PM 50.5420 8.3080 127° Southeast 305 351 10,900 -1,080 Descending FlightAware
12:39PM 50.5050 8.3870 126° Southeast 292 336 10,100 -660 Descending FlightAware
12:40PM 50.4750 8.4490 127° Southeast 264 304 10,000 -120 Descending FlightAware
12:40PM 50.4570 8.4850 128° Southeast 264 304 10,000  Level FlightAware
12:41PM 50.4230 8.5570 127° Southeast 266 306 10,000  Level FlightAware
12:42PM 50.3890 8.6260 128° Southeast 269 310 10,000  Level FlightAware
12:43PM 50.3630 8.6940 121° Southeast 269 310 10,000 -480 Level FlightAware
12:43PM 50.3490 8.7370 117° Southeast 264 304 9,500 -1,140 Descending FlightAware
12:44PM 50.3320 8.7860 119° Southeast 264 304 9,000 -960 Descending FlightAware
12:44PM 50.3230 8.8110 119° Southeast 260 299 8,800 -960 Descending FlightAware
12:44PM 50.3060 8.8600 118° Southeast 257 296 8,300 -1,020 Descending FlightAware
12:45PM 50.2970 8.9020 109° East 256 295 7,900 -1,140 Descending FlightAware
12:45PM 50.2960 8.9660 91° East 252 290 7,300 -1,080 Descending FlightAware
12:45PM 50.2960 8.9950 90° East 251 289 7,100 -960 Descending FlightAware
12:46PM 50.2960 9.0460 90° East 253 291 6,600 -1,020 Descending FlightAware
12:46PM 50.2960 9.0920 90° East 249 287 6,200 -960 Descending FlightAware
12:47PM 50.2960 9.1280 90° East 251 289 5,900 -780 Descending FlightAware
12:47PM 50.2950 9.1650 92° East 251 289 5,700 -600 Descending FlightAware
12:48PM 50.2830 9.2130 111° Southeast 244 281 5,400 -540 Descending FlightAware
12:48PM 50.2670 9.2220 160° South 237 273 5,300 -480 Descending FlightAware
12:48PM 50.2400 9.2240 177° South 235 270 5,100 -660 Descending FlightAware
12:49PM 50.2130 9.2050 204° Southwest 210 242 4,700 -660 Descending FlightAware
12:49PM 50.1970 9.1780 227° Southwest 194 223 4,500 -600 Descending FlightAware
12:50PM 50.1790 9.1470 228° Southwest 177 204 4,200 -600 Descending FlightAware
12:50PM 50.1660 9.1180 235° Southwest 165 190 3,900 -360 Descending FlightAware
12:51PM 50.1590 9.0910 248° West 165 190 3,900  Level FlightAware
12:51PM 50.1550 9.0740 250° West 166 191 3,900  Level FlightAware
12:51PM 50.1470 9.0390 250° West 165 190 3,900  Level FlightAware
12:52PM 50.1410 9.0140 249° West 166 191 3,900  Level FlightAware
12:52PM 50.1330 8.9790 250° West 165 190 3,900  Level FlightAware
12:53PM 50.1250 8.9450 250° West 165 190 3,900  Level FlightAware
12:53PM 50.1180 8.9150 250° West 177 204 3,900  Level FlightAware
12:54PM 50.1100 8.8790 251° West 176 203 3,900  Level FlightAware
12:54PM 50.1010 8.8430 249° West 177 204 3,900 -480 Level FlightAware
12:55PM 50.0940 8.8140 249° West 179 206 3,500 -1,200 Descending FlightAware
12:55PM 50.0890 8.7940 249° West 179 206 3,100 -1,080 Descending FlightAware
12:55PM 50.0830 8.7660 252° West 173 199 2,800 -900 Descending FlightAware
12:56PM 50.0750 8.7320 250° West 165 190 2,300 -900 Descending FlightAware
12:56PM 50.0670 8.6990 249° West 153 176 1,900 -780 Descending FlightAware
12:56PM 50.0650 8.6900 251° West 144 166 1,800 -780 Descending FlightAware
12:57PM 50.0580 8.6610 249° West 138 159 1,400 -840 Descending FlightAware
12:57PM 50.0540 8.6460 247° West 136 157 1,200 -780 Descending FlightAware
12:58PM 50.0490 8.6240 251° West 144 166 900 -780 Descending FlightAware
12:58PM 50.0430 8.5980 250° West 145 167 500 -840 Descending FlightAware